sensor_id;sensor_type;location;lat;lon;timestamp;pressure;altitude;pressure_sealevel;temperature;humidity
25084;BME280;13075;55.682;37.564;2022-08-01T00:01:23;99768.56;;;19.55;100.00
25084;BME280;13075;55.682;37.564;2022-08-01T00:03:49;99764.50;;;19.57;100.00
25084;BME280;13075;55.682;37.564;2022-08-01T00:06:14;99764.28;;;19.59;100.00
25084;BME280;13075;55.682;37.564;2022-08-01T00:08:40;99762.06;;;19.56;100.00
25084;BME280;13075;55.682;37.564;2022-08-01T00:11:05;99764.78;;;19.56;100.00
25084;BME280;13075;55.682;37.564;2022-08-01T00:13:31;99761.25;;;19.55;100.00
25084;BME280;13075;55.682;37.564;2022-08-01T00:15:57;99754.47;;;19.58;100.00
25084;BME280;13075;55.682;37.564;2022-08-01T00:18:22;99762.13;;;19.61;100.00
25084;BME280;13075;55.682;37.564;2022-08-01T00:20:48;99747.66;;;19.55;100.00
25084;BME280;13075;55.682;37.564;2022-08-01T00:23:13;99753.09;;;19.55;100.00
25084;BME280;13075;55.682;37.564;2022-08-01T00:25:39;99743.28;;;19.54;100.00
25084;BME280;13075;55.682;37.564;2022-08-01T00:28:05;99747.91;;;19.54;100.00
25084;BME280;13075;55.682;37.564;2022-08-01T00:30:34;99752.22;;;19.50;100.00
25084;BME280;13075;55.682;37.564;2022-08-01T00:33:00;99754.59;;;19.46;100.00
25084;BME280;13075;55.682;37.564;2022-08-01T00:35:26;99753.47;;;19.42;100.00
25084;BME280;13075;55.682;37.564;2022-08-01T00:37:52;99756.59;;;19.34;100.00
25084;BME280;13075;55.682;37.564;2022-08-01T00:40:18;99744.63;;;19.30;100.00
25084;BME280;13075;55.682;37.564;2022-08-01T00:42:43;99759.50;;;19.27;100.00
25084;BME280;13075;55.682;37.564;2022-08-01T00:45:10;99758.91;;;19.25;100.00
25084;BME280;13075;55.682;37.564;2022-08-01T00:47:35;99762.94;;;19.23;100.00
25084;BME280;13075;55.682;37.564;2022-08-01T00:50:04;99762.88;;;19.18;100.00
25084;BME280;13075;55.682;37.564;2022-08-01T00:52:30;99757.31;;;19.08;100.00
25084;BME280;13075;55.682;37.564;2022-08-01T00:54:56;99756.75;;;19.06;100.00
25084;BME280;13075;55.682;37.564;2022-08-01T00:57:22;99759.25;;;19.12;100.00
25084;BME280;13075;55.682;37.564;2022-08-01T00:59:48;99758.69;;;19.10;100.00
25084;BME280;13075;55.682;37.564;2022-08-01T01:02:13;99763.56;;;19.08;100.00
25084;BME280;13075;55.682;37.564;2022-08-01T01:04:39;99752.72;;;19.08;100.00
25084;BME280;13075;55.682;37.564;2022-08-01T01:07:21;99760.84;;;19.08;100.00
25084;BME280;13075;55.682;37.564;2022-08-01T01:09:52;99763.81;;;19.07;100.00
25084;BME280;13075;55.682;37.564;2022-08-01T01:12:41;99754.31;;;19.04;100.00
25084;BME280;13075;55.682;37.564;2022-08-01T01:17:41;99752.09;;;19.01;100.00
25084;BME280;13075;55.682;37.564;2022-08-01T01:20:12;99754.72;;;18.96;100.00
25084;BME280;13075;55.682;37.564;2022-08-01T01:23:04;99750.03;;;18.92;100.00
25084;BME280;13075;55.682;37.564;2022-08-01T01:25:51;99755.97;;;18.89;100.00
25084;BME280;13075;55.682;37.564;2022-08-01T01:31:13;99758.84;;;18.82;100.00
25084;BME280;13075;55.682;37.564;2022-08-01T01:33:41;99757.78;;;18.83;100.00
25084;BME280;13075;55.682;37.564;2022-08-01T01:36:09;99760.22;;;18.85;100.00
25084;BME280;13075;55.682;37.564;2022-08-01T01:38:43;99756.94;;;18.83;100.00
25084;BME280;13075;55.682;37.564;2022-08-01T01:41:11;99750.47;;;18.84;100.00
25084;BME280;13075;55.682;37.564;2022-08-01T01:43:39;99751.78;;;18.81;100.00
25084;BME280;13075;55.682;37.564;2022-08-01T01:46:06;99760.91;;;18.75;100.00
25084;BME280;13075;55.682;37.564;2022-08-01T01:48:34;99761.72;;;18.76;100.00
25084;BME280;13075;55.682;37.564;2022-08-01T01:51:01;99756.31;;;18.76;100.00
25084;BME280;13075;55.682;37.564;2022-08-01T01:53:28;99757.38;;;18.75;100.00
25084;BME280;13075;55.682;37.564;2022-08-01T01:55:57;99761.47;;;18.77;100.00
25084;BME280;13075;55.682;37.564;2022-08-01T01:58:24;99757.13;;;18.76;100.00
25084;BME280;13075;55.682;37.564;2022-08-01T02:00:51;99756.31;;;18.76;100.00
25084;BME280;13075;55.682;37.564;2022-08-01T02:03:18;99754.16;;;18.78;100.00
25084;BME280;13075;55.682;37.564;2022-08-01T02:05:45;99756.88;;;18.78;100.00
25084;BME280;13075;55.682;37.564;2022-08-01T02:08:14;99762.38;;;18.83;100.00
25084;BME280;13075;55.682;37.564;2022-08-01T02:10:41;99762.88;;;18.80;100.00
25084;BME280;13075;55.682;37.564;2022-08-01T02:13:29;99759.41;;;18.84;100.00
25084;BME280;13075;55.682;37.564;2022-08-01T02:15:55;99758.84;;;18.82;100.00
25084;BME280;13075;55.682;37.564;2022-08-01T02:18:21;99749.16;;;18.86;100.00
25084;BME280;13075;55.682;37.564;2022-08-01T02:20:48;99752.44;;;18.88;100.00
25084;BME280;13075;55.682;37.564;2022-08-01T02:23:17;99750.78;;;18.87;100.00
25084;BME280;13075;55.682;37.564;2022-08-01T02:25:49;99743.72;;;18.86;100.00
25084;BME280;13075;55.682;37.564;2022-08-01T02:28:20;99753.56;;;18.92;100.00
25084;BME280;13075;55.682;37.564;2022-08-01T02:30:56;99748.91;;;18.88;100.00
25084;BME280;13075;55.682;37.564;2022-08-01T02:33:33;99749.22;;;18.91;100.00
25084;BME280;13075;55.682;37.564;2022-08-01T02:36:02;99756.47;;;18.86;100.00
25084;BME280;13075;55.682;37.564;2022-08-01T02:38:31;99748.41;;;18.91;100.00
25084;BME280;13075;55.682;37.564;2022-08-01T02:41:00;99748.13;;;18.92;100.00
25084;BME280;13075;55.682;37.564;2022-08-01T02:43:30;99758.84;;;18.82;100.00
25084;BME280;13075;55.682;37.564;2022-08-01T02:46:00;99755.97;;;18.89;100.00
25084;BME280;13075;55.682;37.564;2022-08-01T02:48:27;99750.34;;;18.95;100.00
25084;BME280;13075;55.682;37.564;2022-08-01T02:50:55;99745.19;;;18.94;100.00
25084;BME280;13075;55.682;37.564;2022-08-01T02:53:24;99749.88;;;18.98;100.00
25084;BME280;13075;55.682;37.564;2022-08-01T02:55:52;99749.59;;;19.00;100.00
25084;BME280;13075;55.682;37.564;2022-08-01T02:58:20;99750.44;;;19.00;100.00
25084;BME280;13075;55.682;37.564;2022-08-01T03:00:46;99748.13;;;18.92;100.00
25084;BME280;13075;55.682;37.564;2022-08-01T03:03:14;99756.25;;;19.09;100.00
25084;BME280;13075;55.682;37.564;2022-08-01T03:05:41;99753.84;;;19.12;100.00
25084;BME280;13075;55.682;37.564;2022-08-01T03:08:10;99747.19;;;19.20;100.00
25084;BME280;13075;55.682;37.564;2022-08-01T03:10:38;99749.84;;;19.15;100.00
25084;BME280;13075;55.682;37.564;2022-08-01T03:13:06;99745.13;;;19.27;100.00
25084;BME280;13075;55.682;37.564;2022-08-01T03:15:36;99747.31;;;19.30;100.00
25084;BME280;13075;55.682;37.564;2022-08-01T03:18:04;99747.97;;;19.37;100.00
25084;BME280;13075;55.682;37.564;2022-08-01T03:20:32;99748.59;;;19.44;100.00
25084;BME280;13075;55.682;37.564;2022-08-01T03:23:01;99746.00;;;19.54;100.00
25084;BME280;13075;55.682;37.564;2022-08-01T03:25:30;99756.59;;;19.77;100.00
25084;BME280;13075;55.682;37.564;2022-08-01T03:27:59;99748.09;;;19.96;100.00
25084;BME280;13075;55.682;37.564;2022-08-01T03:30:27;99743.50;;;20.55;100.00
25084;BME280;13075;55.682;37.564;2022-08-01T03:32:55;99743.81;;;21.37;100.00
25084;BME280;13075;55.682;37.564;2022-08-01T03:35:23;99734.50;;;21.95;100.00
25084;BME280;13075;55.682;37.564;2022-08-01T03:37:52;99739.28;;;21.57;100.00
25084;BME280;13075;55.682;37.564;2022-08-01T03:43:05;99736.19;;;22.71;100.00
25084;BME280;13075;55.682;37.564;2022-08-01T03:45:38;99732.31;;;21.30;100.00
25084;BME280;13075;55.682;37.564;2022-08-01T03:48:10;99734.44;;;21.13;100.00
25084;BME280;13075;55.682;37.564;2022-08-01T03:50:41;99736.88;;;21.14;100.00
25084;BME280;13075;55.682;37.564;2022-08-01T03:53:08;99730.78;;;20.97;100.00
25084;BME280;13075;55.682;37.564;2022-08-01T03:55:38;99736.47;;;20.90;100.00
25084;BME280;13075;55.682;37.564;2022-08-01T03:58:05;99733.56;;;20.70;100.00
25084;BME280;13075;55.682;37.564;2022-08-01T04:00:32;99735.34;;;20.55;100.00
25084;BME280;13075;55.682;37.564;2022-08-01T04:02:58;99728.94;;;20.66;100.00
25084;BME280;13075;55.682;37.564;2022-08-01T04:05:24;99736.22;;;20.60;100.00
25084;BME280;13075;55.682;37.564;2022-08-01T04:07:50;99735.06;;;20.51;100.00
25084;BME280;13075;55.682;37.564;2022-08-01T04:10:22;99727.75;;;20.52;100.00
25084;BME280;13075;55.682;37.564;2022-08-01T04:12:49;99731.06;;;20.59;100.00
25084;BME280;13075;55.682;37.564;2022-08-01T04:15:15;99720.56;;;20.72;100.00
25084;BME280;13075;55.682;37.564;2022-08-01T04:17:41;99733.06;;;20.73;100.00
25084;BME280;13075;55.682;37.564;2022-08-01T04:20:07;99730.13;;;20.80;100.00
25084;BME280;13075;55.682;37.564;2022-08-01T04:22:33;99741.25;;;20.78;100.00
25084;BME280;13075;55.682;37.564;2022-08-01T04:25:00;99737.50;;;20.84;100.00
25084;BME280;13075;55.682;37.564;2022-08-01T04:27:35;99741.38;;;20.57;100.00
25084;BME280;13075;55.682;37.564;2022-08-01T04:30:02;99734.63;;;20.64;100.00
25084;BME280;13075;55.682;37.564;2022-08-01T04:32:32;99741.59;;;20.87;100.00
25084;BME280;13075;55.682;37.564;2022-08-01T04:35:00;99741.28;;;21.20;100.00
25084;BME280;13075;55.682;37.564;2022-08-01T04:37:28;99738.50;;;21.10;100.00
25084;BME280;13075;55.682;37.564;2022-08-01T04:39:54;99734.91;;;21.04;100.00
25084;BME280;13075;55.682;37.564;2022-08-01T04:42:21;99742.50;;;21.02;100.00
25084;BME280;13075;55.682;37.564;2022-08-01T04:44:47;99737.88;;;21.03;100.00
25084;BME280;13075;55.682;37.564;2022-08-01T04:47:13;99741.56;;;21.24;100.00
25084;BME280;13075;55.682;37.564;2022-08-01T04:49:39;99736.19;;;21.39;100.00
25084;BME280;13075;55.682;37.564;2022-08-01T04:52:06;99732.66;;;21.43;100.00
25084;BME280;13075;55.682;37.564;2022-08-01T04:54:34;99733.50;;;21.44;100.00
25084;BME280;13075;55.682;37.564;2022-08-01T04:57:03;99748.69;;;21.35;100.00
25084;BME280;13075;55.682;37.564;2022-08-01T04:59:30;99741.09;;;21.37;100.00
25084;BME280;13075;55.682;37.564;2022-08-01T05:02:18;99743.03;;;21.46;100.00
25084;BME280;13075;55.682;37.564;2022-08-01T05:04:45;99753.13;;;21.56;100.00
25084;BME280;13075;55.682;37.564;2022-08-01T05:07:12;99746.34;;;21.58;100.00
25084;BME280;13075;55.682;37.564;2022-08-01T05:09:40;99752.28;;;21.45;100.00
25084;BME280;13075;55.682;37.564;2022-08-01T05:12:11;99749.03;;;21.53;100.00
25084;BME280;13075;55.682;37.564;2022-08-01T05:14:38;99743.88;;;21.57;100.00
25084;BME280;13075;55.682;37.564;2022-08-01T05:17:06;99748.84;;;21.70;100.00
25084;BME280;13075;55.682;37.564;2022-08-01T05:19:36;99743.13;;;21.82;100.00
25084;BME280;13075;55.682;37.564;2022-08-01T05:22:07;99738.31;;;21.94;100.00
25084;BME280;13075;55.682;37.564;2022-08-01T05:24:37;99738.56;;;21.92;100.00
25084;BME280;13075;55.682;37.564;2022-08-01T05:27:04;99740.97;;;21.84;100.00
25084;BME280;13075;55.682;37.564;2022-08-01T05:29:30;99743.41;;;21.80;100.00
25084;BME280;13075;55.682;37.564;2022-08-01T05:31:56;99732.31;;;22.02;100.00
25084;BME280;13075;55.682;37.564;2022-08-01T05:34:22;99737.25;;;22.20;100.00
25084;BME280;13075;55.682;37.564;2022-08-01T05:36:48;99739.97;;;22.25;100.00
25084;BME280;13075;55.682;37.564;2022-08-01T05:39:14;99740.81;;;22.30;100.00
25084;BME280;13075;55.682;37.564;2022-08-01T05:41:40;99734.81;;;22.33;100.00
25084;BME280;13075;55.682;37.564;2022-08-01T05:44:06;99735.09;;;22.42;100.00
25084;BME280;13075;55.682;37.564;2022-08-01T05:46:32;99735.09;;;22.57;100.00
25084;BME280;13075;55.682;37.564;2022-08-01T05:49:00;99741.84;;;23.05;100.00
25084;BME280;13075;55.682;37.564;2022-08-01T05:51:26;99731.78;;;23.01;100.00
25084;BME280;13075;55.682;37.564;2022-08-01T05:53:52;99732.09;;;22.94;100.00
25084;BME280;13075;55.682;37.564;2022-08-01T05:56:17;99729.88;;;22.96;100.00
25084;BME280;13075;55.682;37.564;2022-08-01T05:58:43;99730.13;;;23.00;100.00
25084;BME280;13075;55.682;37.564;2022-08-01T06:01:09;99734.81;;;22.94;100.00
25084;BME280;13075;55.682;37.564;2022-08-01T06:03:36;99730.66;;;23.12;100.00
25084;BME280;13075;55.682;37.564;2022-08-01T06:06:02;99720.59;;;23.07;100.00
25084;BME280;13075;55.682;37.564;2022-08-01T06:08:28;99730.91;;;23.25;100.00
25084;BME280;13075;55.682;37.564;2022-08-01T06:10:54;99733.88;;;23.29;100.00
25084;BME280;13075;55.682;37.564;2022-08-01T06:13:19;99731.63;;;23.56;100.00
25084;BME280;13075;55.682;37.564;2022-08-01T06:15:46;99727.78;;;23.57;100.00
25084;BME280;13075;55.682;37.564;2022-08-01T06:18:12;99722.28;;;23.67;99.53
25084;BME280;13075;55.682;37.564;2022-08-01T06:20:38;99733.72;;;23.74;98.10
25084;BME280;13075;55.682;37.564;2022-08-01T06:23:04;99727.66;;;23.87;99.43
25084;BME280;13075;55.682;37.564;2022-08-01T06:25:29;99730.16;;;24.23;96.29
25084;BME280;13075;55.682;37.564;2022-08-01T06:27:55;99731.84;;;24.13;96.29
25084;BME280;13075;55.682;37.564;2022-08-01T06:30:21;99732.00;;;24.32;92.62
25084;BME280;13075;55.682;37.564;2022-08-01T06:32:47;99734.00;;;24.55;89.86
25084;BME280;13075;55.682;37.564;2022-08-01T06:35:14;99725.78;;;24.89;89.01
25084;BME280;13075;55.682;37.564;2022-08-01T06:37:39;99738.66;;;26.39;72.36
25084;BME280;13075;55.682;37.564;2022-08-01T06:40:08;99736.31;;;27.79;58.04
25084;BME280;13075;55.682;37.564;2022-08-01T06:42:34;99721.31;;;31.41;46.04
25084;BME280;13075;55.682;37.564;2022-08-01T06:45:10;99726.75;;;35.77;33.74
25084;BME280;13075;55.682;37.564;2022-08-01T06:47:37;99713.97;;;38.74;30.30
25084;BME280;13075;55.682;37.564;2022-08-01T06:50:06;99723.59;;;39.68;28.82
25084;BME280;13075;55.682;37.564;2022-08-01T06:52:33;99724.13;;;40.84;27.97
25084;BME280;13075;55.682;37.564;2022-08-01T06:54:59;99726.19;;;40.94;26.45
25084;BME280;13075;55.682;37.564;2022-08-01T06:57:25;99733.31;;;40.64;26.99
25084;BME280;13075;55.682;37.564;2022-08-01T06:59:50;99727.16;;;40.26;26.96
25084;BME280;13075;55.682;37.564;2022-08-01T07:02:16;99725.66;;;42.30;24.81
25084;BME280;13075;55.682;37.564;2022-08-01T07:04:42;99726.13;;;42.91;24.50
25084;BME280;13075;55.682;37.564;2022-08-01T07:07:07;99728.94;;;43.49;23.79
25084;BME280;13075;55.682;37.564;2022-08-01T07:09:33;99724.28;;;42.66;24.58
25084;BME280;13075;55.682;37.564;2022-08-01T07:11:59;99723.84;;;43.26;23.61
25084;BME280;13075;55.682;37.564;2022-08-01T07:14:25;99719.25;;;43.50;23.34
25084;BME280;13075;55.682;37.564;2022-08-01T07:16:50;99722.50;;;43.49;22.52
25084;BME280;13075;55.682;37.564;2022-08-01T07:19:16;99726.88;;;43.94;22.19
25084;BME280;13075;55.682;37.564;2022-08-01T07:21:42;99725.59;;;43.61;22.71
25084;BME280;13075;55.682;37.564;2022-08-01T07:24:10;99730.50;;;44.62;21.84
25084;BME280;13075;55.682;37.564;2022-08-01T07:26:36;99726.97;;;44.81;20.99
25084;BME280;13075;55.682;37.564;2022-08-01T07:29:02;99725.78;;;44.52;21.56
25084;BME280;13075;55.682;37.564;2022-08-01T07:31:28;99716.06;;;43.48;22.01
25084;BME280;13075;55.682;37.564;2022-08-01T07:33:54;99709.53;;;43.10;21.74
25084;BME280;13075;55.682;37.564;2022-08-01T07:36:19;99723.22;;;44.61;20.29
25084;BME280;13075;55.682;37.564;2022-08-01T07:38:46;99713.91;;;44.34;20.45
25084;BME280;13075;55.682;37.564;2022-08-01T07:41:12;99715.50;;;46.08;19.22
25084;BME280;13075;55.682;37.564;2022-08-01T07:43:37;99719.13;;;45.19;19.82
25084;BME280;13075;55.682;37.564;2022-08-01T07:46:03;99715.34;;;45.52;19.35
25084;BME280;13075;55.682;37.564;2022-08-01T07:48:29;99719.59;;;46.62;18.69
25084;BME280;13075;55.682;37.564;2022-08-01T07:50:55;99706.28;;;48.04;17.87
25084;BME280;13075;55.682;37.564;2022-08-01T07:53:21;99718.63;;;47.05;18.62
25084;BME280;13075;55.682;37.564;2022-08-01T07:55:48;99706.94;;;46.86;18.59
25084;BME280;13075;55.682;37.564;2022-08-01T07:58:14;99715.91;;;46.65;18.54
25084;BME280;13075;55.682;37.564;2022-08-01T08:00:39;99707.09;;;48.71;17.31
25084;BME280;13075;55.682;37.564;2022-08-01T08:03:05;99710.28;;;46.46;18.68
25084;BME280;13075;55.682;37.564;2022-08-01T08:05:31;99702.63;;;46.07;18.89
25084;BME280;13075;55.682;37.564;2022-08-01T08:08:04;99701.44;;;47.44;18.14
25084;BME280;13075;55.682;37.564;2022-08-01T08:10:30;99697.44;;;48.15;17.41
25084;BME280;13075;55.682;37.564;2022-08-01T08:12:56;99692.31;;;48.10;17.42
25084;BME280;13075;55.682;37.564;2022-08-01T08:15:21;99689.03;;;48.11;17.76
25084;BME280;13075;55.682;37.564;2022-08-01T08:17:47;99698.91;;;46.65;18.68
25084;BME280;13075;55.682;37.564;2022-08-01T08:20:13;99703.19;;;48.40;17.26
25084;BME280;13075;55.682;37.564;2022-08-01T08:22:39;99698.25;;;49.54;16.80
25084;BME280;13075;55.682;37.564;2022-08-01T08:25:06;99677.38;;;50.66;15.91
25084;BME280;13075;55.682;37.564;2022-08-01T08:27:32;99693.84;;;47.86;17.44
25084;BME280;13075;55.682;37.564;2022-08-01T08:29:57;99683.09;;;50.44;15.99
25084;BME280;13075;55.682;37.564;2022-08-01T08:32:23;99697.44;;;47.58;17.71
25084;BME280;13075;55.682;37.564;2022-08-01T08:34:49;99685.72;;;43.96;20.03
25084;BME280;13075;55.682;37.564;2022-08-01T08:37:15;99685.34;;;40.00;23.57
25084;BME280;13075;55.682;37.564;2022-08-01T08:39:42;99682.13;;;37.37;25.75
25084;BME280;13075;55.682;37.564;2022-08-01T08:42:12;99685.78;;;36.31;26.31
25084;BME280;13075;55.682;37.564;2022-08-01T08:44:40;99686.91;;;34.63;28.38
25084;BME280;13075;55.682;37.564;2022-08-01T08:47:07;99686.91;;;32.87;30.36
25084;BME280;13075;55.682;37.564;2022-08-01T08:49:33;99673.66;;;32.27;31.47
25084;BME280;13075;55.682;37.564;2022-08-01T08:52:00;99680.91;;;32.19;31.47
25084;BME280;13075;55.682;37.564;2022-08-01T08:54:28;99677.00;;;32.20;32.08
25084;BME280;13075;55.682;37.564;2022-08-01T08:56:55;99683.22;;;32.17;32.36
25084;BME280;13075;55.682;37.564;2022-08-01T08:59:21;99680.59;;;32.00;32.98
25084;BME280;13075;55.682;37.564;2022-08-01T09:01:49;99691.41;;;31.64;33.82
25084;BME280;13075;55.682;37.564;2022-08-01T09:04:15;99678.81;;;31.16;34.64
25084;BME280;13075;55.682;37.564;2022-08-01T09:06:41;99681.72;;;30.73;34.90
25084;BME280;13075;55.682;37.564;2022-08-01T09:09:08;99677.78;;;30.83;35.93
25084;BME280;13075;55.682;37.564;2022-08-01T09:11:34;99677.91;;;31.33;35.84
25084;BME280;13075;55.682;37.564;2022-08-01T09:14:12;99672.56;;;30.35;36.75
25084;BME280;13075;55.682;37.564;2022-08-01T09:16:43;99674.41;;;29.49;38.59
25084;BME280;13075;55.682;37.564;2022-08-01T09:19:14;99679.78;;;29.06;39.19
25084;BME280;13075;55.682;37.564;2022-08-01T09:21:56;99682.88;;;28.52;41.86
25084;BME280;13075;55.682;37.564;2022-08-01T09:24:24;99678.44;;;28.42;41.13
25084;BME280;13075;55.682;37.564;2022-08-01T09:26:49;99672.63;;;28.43;42.21
25084;BME280;13075;55.682;37.564;2022-08-01T09:29:21;99671.97;;;28.69;42.07
25084;BME280;13075;55.682;37.564;2022-08-01T09:31:47;99675.19;;;29.01;41.39
25084;BME280;13075;55.682;37.564;2022-08-01T09:34:14;99673.13;;;29.07;40.47
25084;BME280;13075;55.682;37.564;2022-08-01T09:39:14;99675.25;;;28.04;42.33
25084;BME280;13075;55.682;37.564;2022-08-01T09:41:40;99678.72;;;27.96;42.67
25084;BME280;13075;55.682;37.564;2022-08-01T09:44:06;99679.50;;;27.74;43.21
25084;BME280;13075;55.682;37.564;2022-08-01T09:46:32;99676.31;;;27.81;43.11
25084;BME280;13075;55.682;37.564;2022-08-01T09:49:03;99665.06;;;27.69;43.86
25084;BME280;13075;55.682;37.564;2022-08-01T09:51:34;99673.78;;;27.85;43.29
25084;BME280;13075;55.682;37.564;2022-08-01T09:54:04;99672.06;;;28.33;41.56
25084;BME280;13075;55.682;37.564;2022-08-01T09:56:38;99670.50;;;28.40;40.47
25084;BME280;13075;55.682;37.564;2022-08-01T09:59:04;99670.75;;;28.08;40.98
25084;BME280;13075;55.682;37.564;2022-08-01T10:01:43;99665.47;;;27.62;42.41
25084;BME280;13075;55.682;37.564;2022-08-01T10:04:12;99665.81;;;28.19;42.35
25084;BME280;13075;55.682;37.564;2022-08-01T10:06:39;99662.66;;;28.56;40.88
25084;BME280;13075;55.682;37.564;2022-08-01T10:09:04;99663.47;;;28.57;40.38
25084;BME280;13075;55.682;37.564;2022-08-01T10:11:31;99662.16;;;28.54;39.88
25084;BME280;13075;55.682;37.564;2022-08-01T10:13:59;99659.69;;;28.44;41.79
25084;BME280;13075;55.682;37.564;2022-08-01T10:16:26;99656.97;;;28.08;42.64
25084;BME280;13075;55.682;37.564;2022-08-01T10:18:53;99654.94;;;28.36;41.65
25084;BME280;13075;55.682;37.564;2022-08-01T10:21:20;99651.59;;;28.48;41.50
25084;BME280;13075;55.682;37.564;2022-08-01T10:23:46;99653.22;;;28.26;42.17
25084;BME280;13075;55.682;37.564;2022-08-01T10:26:13;99661.50;;;27.91;43.40
25084;BME280;13075;55.682;37.564;2022-08-01T10:28:41;99664.81;;;27.79;44.17
25084;BME280;13075;55.682;37.564;2022-08-01T10:31:10;99666.41;;;28.16;42.96
25084;BME280;13075;55.682;37.564;2022-08-01T10:33:36;99667.75;;;28.40;41.93
25084;BME280;13075;55.682;37.564;2022-08-01T10:36:05;99660.28;;;28.63;41.36
25084;BME280;13075;55.682;37.564;2022-08-01T10:38:31;99662.09;;;29.07;40.19
25084;BME280;13075;55.682;37.564;2022-08-01T10:40:59;99660.59;;;29.01;40.35
25084;BME280;13075;55.682;37.564;2022-08-01T10:43:27;99663.31;;;28.84;40.96
25084;BME280;13075;55.682;37.564;2022-08-01T10:45:53;99657.84;;;29.01;41.18
25084;BME280;13075;55.682;37.564;2022-08-01T10:51:00;99657.69;;;28.97;41.48
25084;BME280;13075;55.682;37.564;2022-08-01T10:53:27;99646.81;;;28.92;42.30
25084;BME280;13075;55.682;37.564;2022-08-01T10:58:48;99655.38;;;28.82;42.38
25084;BME280;13075;55.682;37.564;2022-08-01T11:03:41;99650.13;;;28.50;40.98
25084;BME280;13075;55.682;37.564;2022-08-01T11:06:16;99645.44;;;28.51;40.47
25084;BME280;13075;55.682;37.564;2022-08-01T11:08:42;99642.09;;;28.31;41.02
25084;BME280;13075;55.682;37.564;2022-08-01T11:11:15;99640.63;;;28.34;40.61
25084;BME280;13075;55.682;37.564;2022-08-01T11:16:41;99638.53;;;28.31;41.12
25084;BME280;13075;55.682;37.564;2022-08-01T11:19:08;99632.16;;;28.22;40.08
25084;BME280;13075;55.682;37.564;2022-08-01T11:32:50;99627.72;;;28.12;42.03
25084;BME280;13075;55.682;37.564;2022-08-01T11:35:18;99619.72;;;28.02;41.22
25084;BME280;13075;55.682;37.564;2022-08-01T11:37:46;99623.97;;;28.08;41.70
25084;BME280;13075;55.682;37.564;2022-08-01T11:40:27;99621.75;;;28.41;41.34
25084;BME280;13075;55.682;37.564;2022-08-01T11:43:18;99624.50;;;28.10;41.30
25084;BME280;13075;55.682;37.564;2022-08-01T11:45:54;99615.28;;;28.15;40.46
25084;BME280;13075;55.682;37.564;2022-08-01T11:48:23;99609.75;;;28.37;40.52
25084;BME280;13075;55.682;37.564;2022-08-01T11:50:53;99609.81;;;28.46;40.90
25084;BME280;13075;55.682;37.564;2022-08-01T11:53:20;99608.06;;;28.58;40.56
25084;BME280;13075;55.682;37.564;2022-08-01T11:55:47;99603.41;;;28.98;39.40
25084;BME280;13075;55.682;37.564;2022-08-01T11:58:15;99601.78;;;28.97;37.83
25084;BME280;13075;55.682;37.564;2022-08-01T12:00:41;99603.13;;;29.17;38.35
25084;BME280;13075;55.682;37.564;2022-08-01T12:03:08;99600.59;;;29.29;37.90
25084;BME280;13075;55.682;37.564;2022-08-01T12:05:36;99597.59;;;29.17;38.74
25084;BME280;13075;55.682;37.564;2022-08-01T12:08:03;99597.13;;;29.06;38.69
25084;BME280;13075;55.682;37.564;2022-08-01T12:10:38;99595.28;;;28.93;38.22
25084;BME280;13075;55.682;37.564;2022-08-01T12:13:06;99588.84;;;29.06;38.51
25084;BME280;13075;55.682;37.564;2022-08-01T12:15:36;99587.56;;;29.03;38.76
25084;BME280;13075;55.682;37.564;2022-08-01T12:18:04;99590.09;;;28.83;38.81
25084;BME280;13075;55.682;37.564;2022-08-01T12:20:33;99591.09;;;28.95;38.29
25084;BME280;13075;55.682;37.564;2022-08-01T12:23:01;99589.09;;;29.27;37.81
25084;BME280;13075;55.682;37.564;2022-08-01T12:25:28;99588.91;;;29.23;37.60
25084;BME280;13075;55.682;37.564;2022-08-01T12:27:53;99583.53;;;29.18;38.07
25084;BME280;13075;55.682;37.564;2022-08-01T12:30:20;99589.81;;;29.10;37.51
25084;BME280;13075;55.682;37.564;2022-08-01T12:32:51;99577.84;;;29.06;37.72
25084;BME280;13075;55.682;37.564;2022-08-01T12:35:22;99578.88;;;28.79;38.10
25084;BME280;13075;55.682;37.564;2022-08-01T12:37:50;99575.50;;;28.91;37.93
25084;BME280;13075;55.682;37.564;2022-08-01T12:40:18;99579.56;;;28.93;38.70
25084;BME280;13075;55.682;37.564;2022-08-01T12:42:46;99577.47;;;28.99;38.36
25084;BME280;13075;55.682;37.564;2022-08-01T12:45:15;99583.91;;;28.86;37.72
25084;BME280;13075;55.682;37.564;2022-08-01T12:47:42;99594.41;;;28.75;37.86
25084;BME280;13075;55.682;37.564;2022-08-01T12:50:12;99583.59;;;28.87;37.31
25084;BME280;13075;55.682;37.564;2022-08-01T12:52:38;99577.72;;;28.80;37.92
25084;BME280;13075;55.682;37.564;2022-08-01T12:55:05;99573.47;;;28.66;38.21
25084;BME280;13075;55.682;37.564;2022-08-01T12:57:32;99572.56;;;28.79;38.82
25084;BME280;13075;55.682;37.564;2022-08-01T13:02:36;99573.81;;;28.42;39.98
25084;BME280;13075;55.682;37.564;2022-08-01T13:05:03;99572.44;;;28.22;40.46
25084;BME280;13075;55.682;37.564;2022-08-01T13:07:49;99567.50;;;28.11;40.79
25084;BME280;13075;55.682;37.564;2022-08-01T13:10:28;99565.75;;;27.70;40.34
25084;BME280;13075;55.682;37.564;2022-08-01T13:12:57;99570.22;;;27.44;41.49
25084;BME280;13075;55.682;37.564;2022-08-01T13:15:31;99563.31;;;27.69;41.28
25084;BME280;13075;55.682;37.564;2022-08-01T13:18:00;99560.63;;;27.55;41.86
25084;BME280;13075;55.682;37.564;2022-08-01T13:20:32;99561.34;;;27.34;41.20
25084;BME280;13075;55.682;37.564;2022-08-01T13:23:17;99563.84;;;27.21;41.01
25084;BME280;13075;55.682;37.564;2022-08-01T13:25:52;99566.28;;;27.23;41.62